Time;durP1;ratioP1;P1;durP2;ratioP2;P2;SDS_P1;SDS_P2;PMS_P1;PMS_P2;Temp;Humidity;BMP_temperature;BMP_pressure;BME280_temperature;BME280_humidity;BME280_pressure;Samples;Min_cycle;Max_cycle;Signal;HPM_P1;HPM_P2
2020/12/02 00:01:18;;;;;;;48.37;36.70;;;4.80;99.90;;;;;;5059640;28;20215;-81
2020/12/02 00:03:52;;;;;;;51.80;39.30;;;4.80;99.90;;;;;;5061149;28;20199;-82
2020/12/02 00:06:20;;;;;;;45.20;36.10;;;4.80;99.90;;;;;;5059134;28;20179;-82
2020/12/02 00:08:52;;;;;;;42.73;33.93;;;4.80;99.90;;;;;;5055805;28;20200;-81
2020/12/02 00:11:19;;;;;;;47.67;39.57;;;4.80;99.90;;;;;;5042693;28;20199;-81
2020/12/02 00:13:50;;;;;;;46.90;36.50;;;4.70;99.90;;;;;;5060368;28;20229;-81
2020/12/02 00:16:21;;;;;;;46.13;35.20;;;4.60;99.90;;;;;;5060008;28;20211;-81
2020/12/02 00:18:47;;;;;;;49.57;38.60;;;4.60;99.90;;;;;;5039627;28;20205;-81
2020/12/02 00:21:14;;;;;;;50.23;37.77;;;4.70;99.90;;;;;;5057669;28;20191;-82
2020/12/02 00:23:40;;;;;;;45.73;35.43;;;4.70;99.90;;;;;;5044249;28;20224;-81
2020/12/02 00:26:08;;;;;;;50.00;37.70;;;4.70;99.90;;;;;;5063793;28;20227;-82
2020/12/02 00:28:36;;;;;;;44.70;36.43;;;4.70;99.90;;;;;;5075544;28;20190;-83
2020/12/02 00:31:02;;;;;;;43.50;35.07;;;4.60;99.90;;;;;;5089731;28;20206;-82
2020/12/02 00:33:29;;;;;;;45.10;35.90;;;4.60;99.90;;;;;;5076980;28;20211;-82
2020/12/02 00:35:56;;;;;;;46.70;37.07;;;4.70;99.90;;;;;;5077541;28;20230;-81
2020/12/02 00:38:23;;;;;;;43.40;33.37;;;4.70;99.90;;;;;;5076022;28;20261;-81
2020/12/02 00:40:51;;;;;;;45.33;35.67;;;4.70;99.90;;;;;;5075801;28;20238;-82
2020/12/02 00:43:22;;;;;;;46.07;34.93;;;4.70;99.90;;;;;;5074277;28;20167;-82
2020/12/02 00:45:51;;;;;;;51.40;37.40;;;4.70;99.90;;;;;;5041490;28;20199;-82
2020/12/02 00:48:20;;;;;;;46.13;35.80;;;4.70;99.90;;;;;;5068150;28;20225;-81
2020/12/02 00:50:47;;;;;;;43.40;34.10;;;4.60;99.90;;;;;;5060582;28;20234;-82
2020/12/02 00:53:16;;;;;;;44.23;36.23;;;4.70;99.90;;;;;;5060388;28;20190;-81
2020/12/02 00:55:44;;;;;;;48.03;36.33;;;4.70;99.90;;;;;;5058889;28;20215;-81
2020/12/02 00:58:15;;;;;;;41.30;33.80;;;4.70;99.90;;;;;;5057489;28;20202;-81
2020/12/02 01:00:42;;;;;;;44.70;33.83;;;4.70;99.90;;;;;;5039019;28;20317;-80
2020/12/02 01:03:16;;;;;;;46.03;34.43;;;4.70;99.90;;;;;;5060115;28;20196;-81
2020/12/02 01:05:45;;;;;;;37.87;31.50;;;4.70;99.90;;;;;;5039373;28;20195;-81
2020/12/02 01:08:22;;;;;;;45.00;34.37;;;4.60;99.90;;;;;;5057215;28;20215;-80
2020/12/02 01:10:56;;;;;;;43.80;34.17;;;4.60;99.90;;;;;;5040011;28;20220;-81
2020/12/02 01:13:22;;;;;;;48.97;36.17;;;4.60;99.90;;;;;;5055919;28;20191;-80
2020/12/02 01:15:49;;;;;;;47.47;36.80;;;4.70;99.90;;;;;;5062354;28;20207;-80
2020/12/02 01:18:22;;;;;;;43.07;32.93;;;4.70;99.90;;;;;;5054013;28;20271;-79
2020/12/02 01:20:55;;;;;;;46.10;34.63;;;4.70;99.90;;;;;;5038976;28;20281;-82
2020/12/02 01:23:22;;;;;;;43.70;34.37;;;4.60;99.90;;;;;;5053032;28;20203;-84
2020/12/02 01:25:51;;;;;;;47.73;35.97;;;4.60;99.90;;;;;;5037066;28;20199;-83
2020/12/02 01:28:23;;;;;;;48.20;36.83;;;4.60;99.90;;;;;;5062159;28;20198;-84
2020/12/02 01:30:50;;;;;;;48.97;36.80;;;4.70;99.90;;;;;;5060384;28;20215;-84
2020/12/02 01:33:17;;;;;;;42.73;33.93;;;4.80;99.90;;;;;;5041415;28;20203;-85
2020/12/02 01:35:47;;;;;;;45.70;34.53;;;4.80;99.90;;;;;;5043447;28;20286;-84
2020/12/02 01:38:20;;;;;;;41.80;32.47;;;4.70;99.90;;;;;;5060683;28;20227;-83
2020/12/02 01:40:47;;;;;;;49.15;35.35;;;4.70;99.90;;;;;;5061599;28;20221;-83
2020/12/02 01:43:14;;;;;;;42.80;34.93;;;4.70;99.90;;;;;;5055667;28;20227;-80
2020/12/02 01:45:42;;;;;;;43.07;33.47;;;4.70;99.90;;;;;;5052378;28;20214;-81
2020/12/02 01:48:22;;;;;;;45.37;33.40;;;4.60;99.90;;;;;;5056704;28;20290;-80
2020/12/02 01:50:53;;;;;;;42.70;33.70;;;4.60;99.90;;;;;;5056883;28;20226;-80
2020/12/02 01:53:27;;;;;;;43.77;33.97;;;4.60;99.90;;;;;;5038057;28;20199;-80
2020/12/02 02:04:17;;;;;;;40.43;31.03;;;4.60;99.90;;;;;;5051198;28;20175;-81
2020/12/02 02:07:06;;;;;;;43.43;33.57;;;4.50;99.90;;;;;;5050814;28;20215;-81
2020/12/02 02:09:33;;;;;;;40.20;32.17;;;4.50;99.90;;;;;;5040319;28;20218;-82
2020/12/02 02:12:29;;;;;;;44.67;35.13;;;4.50;99.90;;;;;;5056253;28;20195;-81
2020/12/02 02:15:04;;;;;;;46.20;33.53;;;4.50;99.90;;;;;;5015099;28;20204;-80
2020/12/02 02:17:31;;;;;;;42.60;33.13;;;4.50;99.90;;;;;;5054470;28;20194;-80
2020/12/02 02:19:59;;;;;;;41.27;31.60;;;4.60;99.90;;;;;;5039776;28;20289;-81
2020/12/02 02:22:26;;;;;;;41.73;31.70;;;4.60;99.90;;;;;;5055566;28;20206;-82
2020/12/02 02:24:55;;;;;;;40.57;32.00;;;4.50;99.90;;;;;;5055987;28;20195;-81
2020/12/02 02:27:25;;;;;;;43.33;31.80;;;4.50;99.90;;;;;;5039280;28;20309;-82
2020/12/02 02:29:52;;;;;;;41.93;30.60;;;4.50;99.90;;;;;;5057472;28;20289;-81
2020/12/02 02:32:22;;;;;;;43.47;31.50;;;4.60;99.90;;;;;;5057004;28;20192;-80
2020/12/02 02:34:51;;;;;;;43.17;32.10;;;4.50;99.90;;;;;;5057116;28;20195;-81
2020/12/02 02:37:21;;;;;;;44.20;32.70;;;4.60;99.90;;;;;;5056219;28;20218;-81
2020/12/02 02:39:48;;;;;;;43.17;32.57;;;4.60;99.90;;;;;;5055568;28;20223;-82
2020/12/02 02:42:29;;;;;;;45.63;32.67;;;4.50;99.90;;;;;;5055507;28;20281;-82
2020/12/02 02:44:57;;;;;;;43.20;33.93;;;4.50;99.90;;;;;;5035696;28;20974;-81
2020/12/02 02:47:25;;;;;;;46.43;34.17;;;4.60;99.90;;;;;;5036333;28;20206;-82
2020/12/02 02:49:52;;;;;;;44.40;34.93;;;4.60;99.90;;;;;;5037239;28;20231;-81
2020/12/02 02:52:18;;;;;;;46.50;33.67;;;4.60;99.90;;;;;;5054425;28;20195;-82
2020/12/02 02:54:45;;;;;;;46.10;33.33;;;4.60;99.90;;;;;;5054082;28;20199;-81
2020/12/02 02:57:12;;;;;;;43.73;33.90;;;4.60;99.90;;;;;;5053855;28;20219;-81
2020/12/02 02:59:39;;;;;;;43.17;31.77;;;4.60;99.90;;;;;;5036050;28;20223;-81
2020/12/02 03:02:06;;;;;;;43.37;32.93;;;4.60;99.90;;;;;;5035618;28;20191;-82
2020/12/02 03:04:34;;;;;;;45.37;31.20;;;4.60;99.90;;;;;;5037328;28;20628;-81
2020/12/02 03:07:00;;;;;;;43.17;33.10;;;4.60;99.90;;;;;;5054270;28;20191;-82
2020/12/02 03:09:27;;;;;;;46.10;34.97;;;4.60;99.90;;;;;;5055717;28;20317;-81
2020/12/02 03:11:55;;;;;;;44.77;34.30;;;4.50;99.90;;;;;;5039176;28;20244;-81
2020/12/02 03:14:22;;;;;;;42.47;33.57;;;4.50;99.90;;;;;;5056174;28;20599;-81
2020/12/02 03:16:53;;;;;;;40.70;32.38;;;4.50;99.90;;;;;;5037796;28;20219;-81
2020/12/02 03:19:22;;;;;;;42.27;31.13;;;4.50;99.90;;;;;;5055683;28;20257;-79
2020/12/02 03:21:51;;;;;;;43.67;32.27;;;4.50;99.90;;;;;;5053947;28;20737;-81
2020/12/02 03:24:18;;;;;;;43.47;32.07;;;4.50;99.90;;;;;;5053647;28;20217;-81
2020/12/02 03:26:47;;;;;;;40.10;31.63;;;4.50;99.90;;;;;;5033859;28;20239;-80
2020/12/02 03:29:14;;;;;;;38.77;31.13;;;4.50;99.90;;;;;;5054254;28;20260;-81
2020/12/02 03:31:42;;;;;;;41.10;32.35;;;4.50;99.90;;;;;;5055390;28;20195;-81
2020/12/02 03:34:12;;;;;;;41.58;30.38;;;4.50;99.90;;;;;;5040027;28;20199;-81
2020/12/02 03:44:33;;;;;;;41.80;31.27;;;4.40;99.90;;;;;;5054947;28;20188;-81
2020/12/02 03:47:00;;;;;;;41.30;32.33;;;4.40;99.90;;;;;;5059273;28;20282;-80
2020/12/02 03:49:27;;;;;;;44.50;32.90;;;4.50;99.90;;;;;;5058392;28;20732;-80
2020/12/02 03:51:54;;;;;;;39.83;29.27;;;4.50;99.90;;;;;;5059089;28;20195;-80
2020/12/02 03:54:20;;;;;;;39.37;30.57;;;4.60;99.90;;;;;;5059026;28;20191;-80
2020/12/02 03:56:46;;;;;;;41.83;30.73;;;4.40;99.90;;;;;;5041275;28;20226;-82
2020/12/02 03:59:13;;;;;;;46.73;34.13;;;4.40;99.90;;;;;;5058170;28;20215;-80
2020/12/02 04:01:39;;;;;;;42.37;32.07;;;4.40;99.90;;;;;;5057434;28;20294;-81
2020/12/02 04:04:06;;;;;;;43.27;31.87;;;4.40;99.90;;;;;;5040013;28;20221;-80
2020/12/02 04:06:33;;;;;;;43.83;32.23;;;4.40;99.90;;;;;;5057843;28;20372;-80
2020/12/02 04:09:01;;;;;;;44.03;33.40;;;4.40;99.90;;;;;;5056684;28;20221;-80
2020/12/02 04:11:27;;;;;;;42.40;31.90;;;4.40;99.90;;;;;;5037301;28;20292;-81
2020/12/02 04:13:54;;;;;;;40.40;30.30;;;4.40;99.90;;;;;;5057254;28;20215;-81
2020/12/02 04:16:20;;;;;;;42.07;31.50;;;4.30;99.90;;;;;;5039576;28;20208;-81
2020/12/02 04:18:47;;;;;;;49.80;34.17;;;4.40;99.90;;;;;;5056590;28;20191;-81
2020/12/02 04:21:13;;;;;;;45.63;34.57;;;4.40;99.90;;;;;;5057130;28;20557;-81
2020/12/02 04:23:41;;;;;;;41.53;31.03;;;4.40;99.90;;;;;;5039664;28;20187;-80
2020/12/02 04:26:07;;;;;;;39.33;31.77;;;4.40;99.90;;;;;;5057657;28;20190;-80
2020/12/02 04:28:33;;;;;;;39.10;30.80;;;4.40;99.90;;;;;;5056216;28;20214;-81
2020/12/02 04:31:00;;;;;;;41.97;32.33;;;4.40;99.90;;;;;;5038309;28;20236;-81
2020/12/02 04:33:27;;;;;;;38.57;29.40;;;4.40;99.90;;;;;;5038579;28;20194;-80
2020/12/02 04:35:53;;;;;;;39.30;30.47;;;4.40;99.90;;;;;;5056152;28;20202;-80
2020/12/02 04:38:19;;;;;;;42.77;32.57;;;4.40;99.90;;;;;;5055631;28;20194;-81
2020/12/02 04:40:47;;;;;;;42.00;32.07;;;4.40;99.90;;;;;;5039819;28;20234;-81
2020/12/02 04:43:20;;;;;;;40.47;31.90;;;4.40;99.90;;;;;;5057640;28;20211;-80
2020/12/02 04:45:48;;;;;;;38.73;30.57;;;4.40;99.90;;;;;;5055462;28;20191;-80
2020/12/02 04:48:17;;;;;;;40.20;30.77;;;4.40;99.90;;;;;;5039633;28;20295;-80
2020/12/02 04:50:44;;;;;;;38.50;30.10;;;4.40;99.90;;;;;;5054656;28;20222;-80
2020/12/02 04:53:17;;;;;;;40.17;30.57;;;4.40;99.90;;;;;;5057205;28;20202;-80
2020/12/02 04:55:46;;;;;;;39.03;31.37;;;4.40;99.90;;;;;;5059718;28;20199;-81
2020/12/02 04:58:25;;;;;;;41.03;30.27;;;4.40;99.90;;;;;;5050690;28;20179;-81
2020/12/02 05:00:51;;;;;;;40.27;31.57;;;4.40;99.90;;;;;;5052004;28;20254;-81
2020/12/02 05:03:18;;;;;;;37.00;28.33;;;4.60;99.90;;;;;;5057879;28;20243;-81
2020/12/02 05:05:44;;;;;;;40.27;30.23;;;4.60;99.90;;;;;;5075084;28;20242;-80
2020/12/02 05:08:21;;;;;;;37.57;29.47;;;4.60;99.90;;;;;;5073953;28;20258;-80
2020/12/02 05:10:48;;;;;;;37.43;28.13;;;4.60;99.90;;;;;;5057339;28;20286;-80
2020/12/02 05:13:14;;;;;;;42.17;31.97;;;4.50;99.90;;;;;;5075316;28;20218;-81
2020/12/02 05:15:41;;;;;;;44.63;31.33;;;4.40;99.90;;;;;;5075902;28;20231;-81
2020/12/02 05:18:22;;;;;;;36.00;29.13;;;4.40;99.90;;;;;;5035009;28;20206;-80
2020/12/02 05:21:05;;;;;;;38.13;30.33;;;4.40;99.90;;;;;;5051529;28;20207;-80
2020/12/02 05:23:31;;;;;;;40.80;31.87;;;4.40;99.90;;;;;;5034164;28;20215;-80
2020/12/02 05:25:58;;;;;;;43.07;31.93;;;4.40;99.90;;;;;;5050993;28;20183;-80
2020/12/02 05:28:28;;;;;;;39.27;31.43;;;4.40;99.90;;;;;;5049105;28;20191;-82
2020/12/02 05:31:13;;;;;;;42.70;30.87;;;4.40;99.90;;;;;;5047957;28;20320;-81
2020/12/02 05:33:40;;;;;;;44.53;33.50;;;4.40;99.90;;;;;;5047774;28;20552;-80
2020/12/02 05:36:14;;;;;;;37.63;29.93;;;4.40;99.90;;;;;;5051062;28;20203;-81
2020/12/02 05:38:50;;;;;;;45.03;33.92;;;4.40;99.90;;;;;;5039145;28;20277;-81
2020/12/02 05:41:18;;;;;;;40.97;29.87;;;4.40;99.90;;;;;;5045511;28;20187;-81
2020/12/02 05:43:52;;;;;;;40.67;31.63;;;4.40;99.90;;;;;;5034630;28;20202;-80
2020/12/02 05:46:25;;;;;;;39.43;30.23;;;4.40;99.90;;;;;;5036635;28;20190;-80
2020/12/02 05:49:01;;;;;;;43.97;33.80;;;4.40;99.90;;;;;;5056627;28;20219;-80
2020/12/02 05:51:27;;;;;;;42.80;32.23;;;4.40;99.90;;;;;;5055411;28;20326;-80
2020/12/02 05:53:59;;;;;;;40.37;31.10;;;4.50;99.90;;;;;;5059975;28;20202;-81
2020/12/02 05:56:26;;;;;;;42.60;30.80;;;4.30;99.90;;;;;;5057657;28;20230;-80
2020/12/02 05:58:52;;;;;;;40.55;32.47;;;4.40;99.90;;;;;;5055133;28;20198;-80
2020/12/02 06:01:22;;;;;;;42.73;31.87;;;4.40;99.90;;;;;;5056854;28;20685;-80
2020/12/02 06:03:54;;;;;;;42.63;31.42;;;4.50;99.90;;;;;;5056959;28;20207;-81
2020/12/02 06:06:20;;;;;;;50.97;37.20;;;4.50;99.90;;;;;;5068935;28;20198;-80
2020/12/02 06:08:50;;;;;;;54.40;40.05;;;4.50;99.90;;;;;;5037724;28;20191;-81
2020/12/02 06:11:33;;;;;;;49.03;36.13;;;4.50;99.90;;;;;;5056309;28;20251;-80
2020/12/02 06:14:04;;;;;;;42.67;32.67;;;4.50;99.90;;;;;;5037096;28;20198;-81
2020/12/02 06:16:43;;;;;;;43.13;32.13;;;4.50;99.90;;;;;;5054228;28;20220;-80
2020/12/02 06:19:16;;;;;;;44.33;32.53;;;4.50;99.90;;;;;;5055030;28;20215;-81
2020/12/02 06:21:44;;;;;;;43.87;32.93;;;4.50;99.90;;;;;;5055634;28;20282;-81
2020/12/02 06:24:12;;;;;;;43.70;33.23;;;4.40;99.90;;;;;;5037731;28;20286;-80
2020/12/02 06:26:41;;;;;;;36.83;28.50;;;4.40;99.90;;;;;;5055584;28;20194;-80
2020/12/02 06:29:23;;;;;;;37.73;31.33;;;4.50;99.90;;;;;;5037585;28;20693;-80
2020/12/02 06:31:57;;;;;;;45.93;32.93;;;4.50;99.90;;;;;;5055487;28;20191;-80
2020/12/02 06:34:26;;;;;;;39.53;29.60;;;4.50;99.90;;;;;;5056855;28;20187;-80
2020/12/02 06:37:06;;;;;;;46.30;33.00;;;4.50;99.90;;;;;;5062479;28;20586;-80
2020/12/02 06:39:37;;;;;;;40.80;30.67;;;4.40;99.90;;;;;;5056013;28;20219;-80
2020/12/02 06:42:28;;;;;;;41.77;31.93;;;4.50;99.90;;;;;;5055250;28;20846;-80
2020/12/02 06:45:07;;;;;;;41.97;31.03;;;4.60;99.90;;;;;;5055662;28;20197;-79
2020/12/02 06:47:36;;;;;;;43.90;33.87;;;4.80;99.90;;;;;;5054280;28;20190;-80
2020/12/02 06:50:11;;;;;;;39.70;30.73;;;4.70;99.90;;;;;;5055043;28;20219;-81
2020/12/02 06:52:38;;;;;;;42.33;32.33;;;4.80;99.90;;;;;;5055260;28;20658;-80
2020/12/02 06:55:14;;;;;;;46.10;32.60;;;4.80;99.90;;;;;;5037330;28;20206;-79
2020/12/02 06:57:42;;;;;;;43.27;31.30;;;4.80;99.90;;;;;;5049068;28;20226;-80
2020/12/02 07:00:17;;;;;;;44.20;32.13;;;4.90;99.90;;;;;;5056517;28;20211;-80
2020/12/02 07:02:52;;;;;;;57.93;43.27;;;4.90;99.90;;;;;;5057247;28;20237;-81
2020/12/02 07:05:25;;;;;;;50.50;36.40;;;4.80;99.90;;;;;;5055305;28;20201;-81
2020/12/02 07:08:16;;;;;;;44.70;35.47;;;4.70;99.90;;;;;;5052458;28;20266;-80
2020/12/02 07:10:55;;;;;;;38.07;31.87;;;4.70;99.90;;;;;;5034884;28;20218;-80
2020/12/02 07:13:22;;;;;;;40.63;31.70;;;4.70;99.90;;;;;;5034946;28;20195;-80
2020/12/02 07:15:49;;;;;;;40.00;32.37;;;4.70;99.90;;;;;;5035582;28;20552;-80
2020/12/02 07:18:20;;;;;;;42.07;33.20;;;4.70;99.90;;;;;;5047506;28;20251;-80
2020/12/02 07:20:49;;;;;;;39.10;29.80;;;4.70;99.90;;;;;;5052003;28;20230;-80
2020/12/02 07:23:20;;;;;;;43.13;30.80;;;4.70;99.90;;;;;;5057944;28;20822;-80
2020/12/02 07:25:47;;;;;;;43.90;32.00;;;4.70;99.90;;;;;;5055210;28;20187;-80
2020/12/02 07:28:15;;;;;;;43.20;31.37;;;4.70;99.90;;;;;;5051443;28;20202;-79
2020/12/02 07:30:42;;;;;;;39.77;30.53;;;4.70;99.90;;;;;;5050354;28;20218;-80
2020/12/02 07:33:19;;;;;;;40.90;31.85;;;4.70;99.90;;;;;;5053204;28;20191;-80
2020/12/02 07:35:47;;;;;;;39.07;30.17;;;4.80;99.90;;;;;;5035915;28;20221;-80
2020/12/02 07:38:15;;;;;;;44.97;34.13;;;4.80;99.90;;;;;;5034354;28;20551;-80
2020/12/02 07:40:43;;;;;;;39.87;31.00;;;4.80;99.90;;;;;;5053477;28;20222;-80
2020/12/02 07:43:24;;;;;;;40.77;30.80;;;4.70;99.90;;;;;;5054874;28;20735;-79
2020/12/02 07:45:58;;;;;;;46.30;32.87;;;4.70;99.90;;;;;;5053105;28;20243;-80
2020/12/02 07:48:29;;;;;;;38.80;31.33;;;4.60;99.90;;;;;;5018235;28;20204;-79
2020/12/02 07:51:00;;;;;;;39.50;29.50;;;4.70;99.90;;;;;;5054305;28;20233;-80
2020/12/02 07:53:41;;;;;;;46.23;33.30;;;4.70;99.90;;;;;;5052057;28;20197;-80
2020/12/02 07:56:15;;;;;;;45.80;32.40;;;4.70;99.90;;;;;;5057996;28;20241;-80
2020/12/02 07:58:44;;;;;;;81.33;56.37;;;4.90;99.90;;;;;;5051935;28;20188;-80
2020/12/02 08:01:29;;;;;;;44.10;33.80;;;5.10;99.90;;;;;;5052904;28;20211;-81
2020/12/02 08:03:57;;;;;;;42.27;32.87;;;5.00;99.90;;;;;;5051770;28;20248;-80
2020/12/02 08:06:34;;;;;;;42.80;31.60;;;5.00;99.90;;;;;;5035716;28;20554;-80
2020/12/02 08:09:00;;;;;;;43.83;32.40;;;4.90;99.90;;;;;;5032665;28;20198;-80
2020/12/02 08:11:27;;;;;;;46.60;35.17;;;4.90;99.90;;;;;;5035556;28;20206;-79
2020/12/02 08:13:57;;;;;;;47.80;33.30;;;4.90;99.90;;;;;;5052003;28;20199;-80
2020/12/02 08:16:28;;;;;;;45.17;33.30;;;4.90;99.90;;;;;;5053578;28;20195;-80
2020/12/02 08:18:57;;;;;;;43.67;34.13;;;4.80;99.90;;;;;;5035458;28;20191;-80
2020/12/02 08:21:27;;;;;;;48.17;32.20;;;4.80;99.90;;;;;;5051256;28;20209;-80
2020/12/02 08:24:06;;;;;;;47.27;33.57;;;4.90;99.90;;;;;;5053561;28;20191;-81
2020/12/02 08:26:34;;;;;;;43.57;31.17;;;5.00;99.90;;;;;;5052694;28;20194;-80
2020/12/02 08:29:04;;;;;;;48.03;34.80;;;5.10;99.90;;;;;;5053362;28;20187;-79
2020/12/02 08:31:32;;;;;;;46.15;34.38;;;5.10;99.90;;;;;;5054355;28;20261;-80
2020/12/02 08:34:13;;;;;;;47.83;34.37;;;5.10;99.90;;;;;;5036196;28;20183;-80
2020/12/02 08:36:41;;;;;;;49.47;34.23;;;5.00;99.90;;;;;;5034465;28;20293;-81
2020/12/02 08:39:09;;;;;;;44.13;32.43;;;4.90;99.90;;;;;;5053175;28;20215;-80
2020/12/02 08:41:43;;;;;;;43.73;32.67;;;4.90;99.90;;;;;;5035836;28;20283;-79
2020/12/02 08:44:11;;;;;;;46.07;35.57;;;4.90;99.90;;;;;;5053272;28;20190;-79
2020/12/02 08:46:54;;;;;;;48.53;34.77;;;5.00;99.90;;;;;;5059594;28;20195;-80
2020/12/02 08:49:24;;;;;;;45.42;33.15;;;4.90;99.90;;;;;;5038154;28;20215;-79
2020/12/02 08:51:51;;;;;;;40.73;33.37;;;4.90;99.90;;;;;;5056441;28;20207;-79
2020/12/02 08:54:20;;;;;;;44.83;33.53;;;5.10;99.90;;;;;;5056662;28;20225;-81
2020/12/02 08:56:48;;;;;;;45.33;33.30;;;5.10;99.90;;;;;;5057703;28;20257;-80
2020/12/02 08:59:15;;;;;;;48.37;36.20;;;5.10;99.90;;;;;;5034046;28;20210;-77
2020/12/02 09:01:41;;;;;;;43.70;32.00;;;5.10;99.90;;;;;;5051209;28;20224;-78
2020/12/02 09:04:08;;;;;;;45.87;34.80;;;5.00;99.90;;;;;;5031137;28;20469;-78
2020/12/02 09:06:35;;;;;;;46.90;34.43;;;5.10;99.90;;;;;;5050329;28;20219;-78
2020/12/02 09:09:03;;;;;;;46.90;32.80;;;5.10;99.90;;;;;;5049933;28;20195;-78
2020/12/02 09:11:31;;;;;;;46.28;35.10;;;5.20;99.90;;;;;;5049966;28;20199;-77
2020/12/02 09:14:00;;;;;;;49.47;37.00;;;5.20;99.90;;;;;;5050039;28;20288;-79
2020/12/02 09:16:29;;;;;;;48.23;33.57;;;5.20;99.90;;;;;;5050470;28;20198;-78
2020/12/02 09:18:56;;;;;;;47.77;36.33;;;5.20;99.90;;;;;;5051751;28;20204;-78
2020/12/02 09:21:24;;;;;;;43.60;34.93;;;5.30;99.90;;;;;;5052979;28;20231;-78
2020/12/02 09:23:51;;;;;;;49.50;36.47;;;5.20;99.90;;;;;;5056564;28;20196;-78
2020/12/02 09:26:20;;;;;;;53.97;38.10;;;5.30;99.90;;;;;;5056709;28;20193;-78
2020/12/02 09:28:47;;;;;;;57.33;40.03;;;5.10;99.90;;;;;;5056455;28;20203;-78
2020/12/02 09:31:15;;;;;;;54.03;38.50;;;5.20;99.90;;;;;;5066949;28;20199;-80
2020/12/02 09:33:41;;;;;;;51.87;37.43;;;5.20;99.90;;;;;;5063578;28;20205;-80
2020/12/02 09:36:08;;;;;;;55.30;40.47;;;5.20;99.90;;;;;;5063468;28;20253;-79
2020/12/02 09:38:35;;;;;;;56.07;41.20;;;5.10;99.90;;;;;;5062514;28;20203;-80
2020/12/02 09:41:16;;;;;;;60.47;43.30;;;5.10;99.90;;;;;;5080508;28;20259;-78
2020/12/02 09:44:09;;;;;;;55.97;42.60;;;5.10;99.90;;;;;;5078168;28;20179;-79
2020/12/02 09:46:37;;;;;;;60.63;43.20;;;5.10;99.90;;;;;;5069742;28;20172;-79
2020/12/02 09:49:05;;;;;;;62.63;42.87;;;5.10;99.90;;;;;;5055907;28;20199;-78
2020/12/02 09:51:32;;;;;;;57.43;40.93;;;5.10;99.90;;;;;;5058636;28;20209;-78
2020/12/02 09:53:59;;;;;;;56.93;41.50;;;5.10;99.90;;;;;;5061167;28;20652;-79
2020/12/02 09:56:28;;;;;;;58.70;40.90;;;5.10;99.90;;;;;;5058855;28;20198;-79
2020/12/02 09:58:57;;;;;;;57.70;42.27;;;5.10;99.90;;;;;;5059073;28;20192;-78
2020/12/02 10:01:36;;;;;;;60.93;42.00;;;5.10;99.90;;;;;;5040082;28;20241;-79
2020/12/02 10:04:31;;;;;;;59.33;41.73;;;5.20;99.90;;;;;;5039830;28;20199;-79
2020/12/02 10:07:20;;;;;;;57.23;42.30;;;5.10;99.90;;;;;;5057447;28;20191;-79
2020/12/02 10:10:33;;;;;;;55.47;41.23;;;5.20;99.90;;;;;;5057515;28;20211;-79
2020/12/02 10:13:11;;;;;;;60.17;43.03;;;5.20;99.90;;;;;;5057731;28;20205;-80
2020/12/02 10:15:47;;;;;;;63.17;43.23;;;5.30;99.90;;;;;;5058266;28;20213;-79
2020/12/02 10:18:38;;;;;;;57.67;41.67;;;5.20;99.90;;;;;;5043042;28;20278;-80
2020/12/02 10:21:12;;;;;;;57.33;40.27;;;5.30;99.90;;;;;;5056913;28;20218;-80
2020/12/02 10:23:50;;;;;;;58.53;41.03;;;5.30;99.90;;;;;;5035512;28;20199;-79
2020/12/02 10:26:53;;;;;;;53.83;38.87;;;5.30;99.90;;;;;;5038097;28;20271;-79
2020/12/02 10:29:30;;;;;;;57.80;38.83;;;5.30;99.90;;;;;;5037685;28;20211;-78
2020/12/02 10:32:09;;;;;;;51.00;41.27;;;5.30;99.90;;;;;;5052932;28;20210;-80
2020/12/02 10:34:38;;;;;;;54.83;39.90;;;5.30;99.90;;;;;;5037197;28;20206;-80
2020/12/02 10:37:15;;;;;;;46.80;37.67;;;5.40;99.90;;;;;;5038176;28;20220;-80
2020/12/02 10:39:42;;;;;;;54.57;37.30;;;5.40;99.90;;;;;;5056389;28;20211;-79
2020/12/02 10:42:19;;;;;;;54.23;40.23;;;5.30;99.90;;;;;;5041228;28;20203;-80
2020/12/02 10:45:06;;;;;;;51.73;36.90;;;5.40;99.90;;;;;;5076568;28;20172;-80
2020/12/02 10:48:03;;;;;;;56.40;38.75;;;5.30;99.90;;;;;;5074099;28;20195;-80
2020/12/02 10:50:32;;;;;;;51.67;37.97;;;5.40;99.90;;;;;;5022698;28;20318;-81
2020/12/02 10:53:02;;;;;;;52.97;38.27;;;5.40;99.90;;;;;;5040982;28;20266;-80
2020/12/02 10:55:32;;;;;;;49.77;35.37;;;5.40;99.90;;;;;;5058762;28;20298;-81
2020/12/02 10:58:01;;;;;;;49.53;35.87;;;5.30;99.90;;;;;;5065047;28;20247;-81
2020/12/02 11:00:29;;;;;;;52.07;38.37;;;5.20;99.90;;;;;;5070048;28;20234;-80
2020/12/02 11:03:18;;;;;;;48.67;37.47;;;5.20;99.90;;;;;;5046619;28;20308;-81
2020/12/02 11:05:55;;;;;;;50.40;36.27;;;5.20;99.90;;;;;;5026029;28;20203;-80
2020/12/02 11:08:31;;;;;;;48.77;35.50;;;5.20;99.90;;;;;;5038552;28;20199;-80
2020/12/02 11:11:07;;;;;;;48.93;35.20;;;5.20;99.90;;;;;;5054632;28;20227;-80
2020/12/02 11:13:46;;;;;;;45.70;35.00;;;5.20;99.90;;;;;;5051673;28;20211;-80
2020/12/02 11:16:23;;;;;;;45.27;34.80;;;5.20;99.90;;;;;;5059340;28;20216;-81
2020/12/02 11:19:38;;;;;;;45.58;33.72;;;5.20;99.90;;;;;;5018340;28;20233;-81
2020/12/02 11:26:22;;;;;;;42.37;31.63;;;5.00;99.90;;;;;;5006209;28;20273;-81
2020/12/02 11:28:51;;;;;;;47.13;33.23;;;5.10;99.90;;;;;;5034528;28;20215;-80
2020/12/02 11:31:44;;;;;;;49.67;33.95;;;5.10;99.90;;;;;;5058911;28;20196;-80
2020/12/02 11:34:30;;;;;;;49.75;36.05;;;5.20;99.90;;;;;;5039997;28;20225;-80
2020/12/02 11:37:04;;;;;;;46.97;32.90;;;5.20;99.90;;;;;;5056306;28;20209;-81
2020/12/02 11:39:55;;;;;;;49.50;33.50;;;5.30;99.90;;;;;;5059077;28;20305;-82
2020/12/02 11:42:28;;;;;;;45.53;32.67;;;5.30;99.90;;;;;;5058928;28;20184;-81
2020/12/02 11:44:58;;;;;;;48.60;35.85;;;5.30;99.90;;;;;;5038773;28;20201;-81
2020/12/02 11:47:34;;;;;;;45.83;34.70;;;5.30;99.90;;;;;;5041469;28;20255;-81
2020/12/02 11:50:07;;;;;;;47.08;32.97;;;5.30;99.90;;;;;;5039831;28;20663;-78
2020/12/02 11:52:46;;;;;;;43.83;32.57;;;5.30;99.90;;;;;;5056215;28;20199;-79
2020/12/02 11:55:18;;;;;;;48.57;33.20;;;5.30;99.90;;;;;;5054659;28;20197;-79
2020/12/02 11:57:49;;;;;;;49.40;33.63;;;5.20;99.90;;;;;;5060548;28;20283;-80
2020/12/02 12:00:16;;;;;;;43.30;31.50;;;5.20;99.90;;;;;;5039609;28;20216;-80
2020/12/02 12:03:13;;;;;;;42.40;32.08;;;5.30;99.90;;;;;;5054403;28;20730;-80
2020/12/02 12:05:50;;;;;;;45.87;33.73;;;5.20;99.90;;;;;;5026308;28;20253;-79
2020/12/02 12:08:24;;;;;;;44.07;32.70;;;5.20;99.90;;;;;;5036582;28;20221;-79
2020/12/02 12:10:55;;;;;;;50.13;31.27;;;5.30;99.90;;;;;;5037859;28;20211;-80
2020/12/02 12:13:32;;;;;;;47.83;35.67;;;5.30;99.90;;;;;;5054515;28;21081;-79
2020/12/02 12:16:04;;;;;;;45.13;34.13;;;5.10;99.90;;;;;;5050175;28;20207;-81
2020/12/02 12:18:42;;;;;;;39.83;29.27;;;5.20;99.90;;;;;;5055732;28;20213;-78
2020/12/02 12:21:17;;;;;;;49.85;33.67;;;5.10;99.90;;;;;;5053034;28;20299;-78
2020/12/02 12:23:55;;;;;;;44.17;29.80;;;5.10;99.90;;;;;;5052917;28;20190;-78
2020/12/02 12:26:23;;;;;;;44.60;32.23;;;5.10;99.90;;;;;;5034146;28;20223;-79
2020/12/02 12:28:51;;;;;;;41.35;30.45;;;5.10;99.90;;;;;;5054636;28;20207;-79
2020/12/02 12:31:24;;;;;;;43.53;30.83;;;5.20;99.90;;;;;;5038094;28;20203;-78
2020/12/02 12:33:59;;;;;;;43.33;32.53;;;5.40;99.90;;;;;;5055154;28;20206;-78
2020/12/02 12:36:26;;;;;;;41.77;27.10;;;5.70;99.90;;;;;;5054876;28;20391;-78
2020/12/02 12:38:57;;;;;;;45.35;32.35;;;5.40;99.90;;;;;;5018620;28;20224;-80
2020/12/02 12:41:35;;;;;;;41.42;29.73;;;5.30;99.90;;;;;;5054001;28;20203;-77
2020/12/02 12:44:11;;;;;;;45.60;30.57;;;5.20;99.90;;;;;;5054559;28;20582;-78
2020/12/02 12:46:43;;;;;;;32.20;24.10;;;5.30;99.90;;;;;;5053591;28;20279;-78
2020/12/02 12:49:14;;;;;;;30.83;23.87;;;5.10;99.90;;;;;;5054341;28;20262;-77
2020/12/02 12:51:42;;;;;;;32.47;24.43;;;5.20;99.90;;;;;;5036476;28;20191;-77
2020/12/02 12:54:13;;;;;;;31.93;24.93;;;5.40;99.90;;;;;;5019282;28;20314;-78
2020/12/02 12:56:41;;;;;;;34.50;27.50;;;5.20;99.90;;;;;;5053331;28;20507;-78
2020/12/02 12:59:13;;;;;;;33.63;26.20;;;5.30;99.90;;;;;;5055626;28;20234;-78
2020/12/02 13:01:41;;;;;;;36.60;27.40;;;5.30;99.90;;;;;;5057934;28;20211;-78
2020/12/02 13:04:11;;;;;;;31.63;25.40;;;5.40;99.90;;;;;;5052536;28;20202;-79
2020/12/02 13:06:48;;;;;;;34.67;26.43;;;5.30;99.90;;;;;;5058119;28;20207;-79
2020/12/02 13:09:22;;;;;;;38.27;28.20;;;5.30;99.90;;;;;;5058510;28;20203;-80
2020/12/02 13:12:02;;;;;;;40.60;27.93;;;5.30;99.90;;;;;;5057533;28;20230;-78
2020/12/02 13:14:40;;;;;;;37.60;29.70;;;5.30;99.90;;;;;;5061130;28;20202;-78
2020/12/02 13:17:15;;;;;;;42.72;30.95;;;5.30;99.90;;;;;;5023373;28;20183;-79
2020/12/02 13:19:50;;;;;;;37.97;28.97;;;5.30;99.90;;;;;;5040184;28;20245;-78